Fredericksburg, OH

5:50 PM EDT on June 02, 2015 (GMT -0400)
APRSWXNET | | Change Station
CLOSE
Current Station
Personal Weather Station
Location: Millersburg, OH
Elevation: 994 ft
Nearby Weather Stations

Elev 994 ft 40.57 °N, 81.91 °W | Updated 20 minutes ago

Partly Cloudy
Partly Cloudy
64 °F
Feels Like 64 °F
N
3
Wind Variable Wind from ENE
Gusts 7.0 mph

Today
High -- | Low -- °F
--% Chance of Precip.
Yesterday
High -- | Low -- °F
Precip. -- in
5:58 AM 8:52 PM
Full, 100% visible
Pressure 30.11 in
Visibility 10.0 miles
Clouds Few 2800 ft
Dew Point 51 °F
Humidity 63%
Rainfall in
Snow Depth Not available.
UV 5 out of 12
Pollen 8.40 out of 12
Air Quality Not available.
Flu Activity Sporadic
METAR KBJJ 022056Z AUTO 10009KT 10SM FEW028 19/12 A3011 RMK AO2 SLP194 T01890122 57017 TSNO

More Conditions Fewer Conditions

Pressure 30.11 in
Visibility 10.0 miles
Clouds Few 2800 ft
Dew Point 51 °F
Humidity 63%
Rainfall in
Snow Depth Not available.
UV 5 out of 12
Pollen 8.40 out of 12
Air Quality Not available.
Flu Activity Sporadic
METAR KBJJ 022056Z AUTO 10009KT 10SM FEW028 19/12 A3011 RMK AO2 SLP194 T01890122 57017 TSNO

More Conditions Fewer Conditions

10-Day Weather Forecast

×

Almanac

Astronomy

Jun. 02, 2015 Rise Set
Actual Time
Civil Twilight
Nautical Twilight
Astronomical Twilight
Moon
Length of Visible Light
Length of Day
Tomorrow will be .
, % of the Moon is Illuminated

Today's Extremes

State Highs State Lows

Community

WunderPhotos

Upload Photos

1,826,032 photos uploaded!

WunderBlogs® & News

Nearby

Air Quality

  Air Quality AQ Index Pollutant
Not available.

Snow Depth

Station Depth Elevation

Earthquake Activity

City Distance Mag. Time & Date
Minimum magnitude displayed is 2.5.

Coastal Water Temperatures

Place Temperature

Stations

Nearby Weather Stations

Station Location Temp. Windchill Dew Point Humidity Wind Precip. Elev Updated Type